Time;durP1;ratioP1;P1;durP2;ratioP2;P2;SDS_P1;SDS_P2;PMS_P1;PMS_P2;Temp;Humidity;BMP_temperature;BMP_pressure;BME280_temperature;BME280_humidity;BME280_pressure;Samples;Min_cycle;Max_cycle;Signal;HPM_P1;HPM_P2
2022/04/12 00:00:20;;;;;;;0.93;0.63;;;8.90;64.40;;;;;;5113460;28;20040;-72
2022/04/12 00:02:46;;;;;;;0.80;0.60;;;8.90;64.40;;;;;;5113401;28;20477;-72
2022/04/12 00:05:12;;;;;;;0.90;0.80;;;8.80;64.30;;;;;;5113394;28;20039;-72
2022/04/12 00:07:40;;;;;;;1.00;0.65;;;8.80;64.40;;;;;;5113378;28;20047;-72
2022/04/12 00:10:07;;;;;;;0.65;0.50;;;8.80;64.50;;;;;;5113840;28;20048;-72
2022/04/12 00:12:33;;;;;;;0.60;0.50;;;8.70;64.50;;;;;;5113663;28;20032;-72
2022/04/12 00:14:59;;;;;;;1.13;0.60;;;8.70;64.60;;;;;;5113489;28;20132;-72
2022/04/12 00:20:10;;;;;;;0.88;0.60;;;8.70;64.80;;;;;;5110036;28;20075;-72
2022/04/12 00:22:36;;;;;;;1.00;0.60;;;8.70;64.90;;;;;;5113057;28;20039;-72
2022/04/12 00:25:03;;;;;;;0.73;0.60;;;8.60;64.90;;;;;;5112937;28;20047;-72
2022/04/12 00:27:28;;;;;;;0.65;0.65;;;8.60;64.90;;;;;;5112840;28;20051;-72
2022/04/12 00:29:54;;;;;;;0.85;0.57;;;8.60;64.90;;;;;;5112974;28;20040;-72
2022/04/12 00:32:20;;;;;;;0.73;0.60;;;8.60;64.90;;;;;;5077531;28;20426;-72
2022/04/12 00:34:46;;;;;;;0.82;0.70;;;8.60;64.90;;;;;;5094462;28;20413;-72
2022/04/12 00:37:12;;;;;;;0.55;0.55;;;8.60;64.90;;;;;;5112981;28;20032;-72
2022/04/12 00:39:38;;;;;;;0.77;0.63;;;8.60;64.90;;;;;;5113405;28;20052;-72
2022/04/12 00:42:05;;;;;;;0.70;0.57;;;8.60;64.90;;;;;;5094484;28;21490;-72
2022/04/12 00:44:30;;;;;;;0.75;0.60;;;8.50;64.90;;;;;;5112846;28;20066;-72
2022/04/12 00:46:56;;;;;;;1.17;0.50;;;8.60;65.00;;;;;;5113422;28;20477;-72
2022/04/12 00:49:25;;;;;;;0.90;0.60;;;8.60;65.00;;;;;;5113347;28;20489;-72
2022/04/12 00:51:52;;;;;;;0.93;0.70;;;8.60;65.00;;;;;;5113220;28;20092;-72
2022/04/12 00:54:19;;;;;;;0.85;0.60;;;8.50;65.00;;;;;;5112208;28;20405;-72
2022/04/12 00:56:47;;;;;;;0.80;0.60;;;8.60;65.00;;;;;;5113349;28;20042;-72
2022/04/12 00:59:14;;;;;;;0.70;0.60;;;8.50;65.00;;;;;;5095381;28;20043;-72
2022/04/12 01:01:40;;;;;;;0.88;0.60;;;8.50;65.10;;;;;;5113063;28;20039;-72
2022/04/12 01:04:05;;;;;;;0.55;0.55;;;8.50;65.10;;;;;;5112626;28;20036;-72
2022/04/12 01:06:31;;;;;;;0.73;0.60;;;8.40;65.10;;;;;;5112533;28;20100;-72
2022/04/12 01:08:57;;;;;;;0.75;0.60;;;8.40;65.20;;;;;;5093101;28;20036;-72
2022/04/12 01:11:25;;;;;;;0.60;0.60;;;8.40;65.20;;;;;;5094278;28;20040;-71
2022/04/12 01:13:52;;;;;;;0.68;0.57;;;8.40;65.30;;;;;;5112494;28;20397;-72
2022/04/12 01:16:18;;;;;;;0.50;0.50;;;8.40;65.30;;;;;;5112396;28;20043;-72
2022/04/12 01:18:44;;;;;;;1.00;0.90;;;8.30;65.20;;;;;;5112337;28;20599;-71
2022/04/12 01:21:10;;;;;;;0.80;0.70;;;8.40;65.40;;;;;;5077109;28;20114;-72
2022/04/12 01:24:01;;;;;;;0.52;0.52;;;8.30;65.30;;;;;;5093123;28;20043;-72
2022/04/12 01:26:28;;;;;;;0.50;0.40;;;8.30;65.40;;;;;;5112363;28;20067;-72
2022/04/12 01:28:53;;;;;;;0.82;0.50;;;8.20;65.40;;;;;;5112327;28;20035;-72
2022/04/12 01:31:19;;;;;;;0.93;0.70;;;8.20;65.50;;;;;;5112834;28;20036;-72
2022/04/12 01:33:45;;;;;;;1.67;0.50;;;8.20;65.60;;;;;;5094346;28;20067;-72
2022/04/12 01:36:11;;;;;;;0.65;0.60;;;8.20;65.70;;;;;;5112195;28;20506;-72
2022/04/12 01:38:36;;;;;;;0.38;0.38;;;8.20;65.80;;;;;;5112144;28;20044;-72
2022/04/12 01:41:02;;;;;;;0.45;0.40;;;8.10;65.80;;;;;;5112105;28;20123;-72
2022/04/12 01:43:29;;;;;;;0.85;0.43;;;8.10;65.90;;;;;;5093851;28;20113;-72
2022/04/12 01:45:55;;;;;;;0.80;0.60;;;8.00;65.80;;;;;;5111895;28;20040;-72
2022/04/12 01:48:20;;;;;;;0.40;0.40;;;8.10;65.90;;;;;;5112361;28;20043;-72
2022/04/12 01:50:46;;;;;;;0.60;0.50;;;8.10;66.00;;;;;;5112039;28;20028;-72
2022/04/12 01:53:12;;;;;;;0.43;0.40;;;8.10;66.00;;;;;;5111975;28;20116;-71
2022/04/12 01:55:38;;;;;;;0.70;0.50;;;8.00;66.00;;;;;;5112030;28;20047;-71
2022/04/12 01:58:04;;;;;;;0.80;0.70;;;8.10;66.00;;;;;;5111749;28;20035;-72
2022/04/12 02:00:30;;;;;;;0.50;0.50;;;8.00;66.00;;;;;;5112417;28;20040;-72
2022/04/12 02:02:56;;;;;;;0.40;0.40;;;8.00;66.00;;;;;;5111925;28;20081;-72
2022/04/12 02:05:22;;;;;;;0.68;0.52;;;8.10;66.10;;;;;;5113743;28;20163;-71
2022/04/12 02:07:48;;;;;;;0.93;0.60;;;8.00;66.00;;;;;;5115326;28;20040;-72
2022/04/12 02:10:13;;;;;;;0.40;0.40;;;8.00;66.00;;;;;;5115677;28;20035;-72
2022/04/12 02:12:39;;;;;;;0.50;0.50;;;8.00;66.00;;;;;;5096808;28;20040;-72
2022/04/12 02:15:05;;;;;;;0.47;0.30;;;8.00;66.00;;;;;;5115231;28;20063;-72
2022/04/12 02:17:31;;;;;;;0.60;0.52;;;8.00;66.00;;;;;;5114892;28;20118;-72
2022/04/12 02:19:57;;;;;;;0.60;0.57;;;8.00;66.10;;;;;;5096099;28;20533;-71
2022/04/12 02:22:23;;;;;;;0.60;0.60;;;7.90;66.10;;;;;;5114927;28;20043;-72
2022/04/12 02:24:48;;;;;;;0.47;0.47;;;7.90;66.20;;;;;;5094607;28;20504;-72
2022/04/12 02:27:14;;;;;;;0.70;0.40;;;7.90;66.20;;;;;;5115106;28;20079;-72
2022/04/12 02:29:40;;;;;;;0.30;0.30;;;7.80;66.30;;;;;;5115369;28;20035;-72
2022/04/12 02:32:06;;;;;;;0.50;0.50;;;7.90;66.30;;;;;;5115087;28;20042;-72
2022/04/12 02:34:32;;;;;;;0.57;0.50;;;7.80;66.30;;;;;;5115295;28;20031;-72
2022/04/12 02:36:58;;;;;;;0.77;0.50;;;7.80;66.30;;;;;;5115491;28;20076;-72
2022/04/12 02:39:24;;;;;;;0.43;0.43;;;7.80;66.30;;;;;;5114999;28;20474;-72
2022/04/12 02:41:50;;;;;;;0.57;0.50;;;7.80;66.40;;;;;;5096630;28;20043;-72
2022/04/12 02:44:16;;;;;;;0.50;0.50;;;7.80;66.40;;;;;;5114990;28;20074;-71
2022/04/12 02:46:42;;;;;;;0.68;0.40;;;7.80;66.50;;;;;;5115082;28;20046;-71
2022/04/12 02:49:08;;;;;;;0.55;0.50;;;7.70;66.50;;;;;;5114579;28;20036;-71
2022/04/12 02:51:33;;;;;;;0.47;0.38;;;7.80;66.60;;;;;;5115130;28;20435;-71
2022/04/12 02:53:59;;;;;;;0.30;0.30;;;7.70;66.60;;;;;;5115108;28;20085;-71
2022/04/12 02:56:25;;;;;;;0.52;0.40;;;7.70;66.60;;;;;;5114627;28;20032;-71
2022/04/12 02:58:51;;;;;;;0.40;0.40;;;7.80;66.70;;;;;;5114494;28;20036;-72
2022/04/12 03:01:17;;;;;;;0.80;0.50;;;7.70;66.70;;;;;;5114416;28;20445;-71
2022/04/12 03:03:42;;;;;;;0.77;0.52;;;7.70;66.70;;;;;;5114418;28;20039;-71
2022/04/12 03:06:08;;;;;;;0.77;0.50;;;7.70;66.70;;;;;;5114512;28;20032;-72
2022/04/12 03:08:34;;;;;;;0.73;0.45;;;7.70;66.70;;;;;;5114318;28;20062;-72
2022/04/12 03:11:00;;;;;;;0.65;0.60;;;7.70;66.80;;;;;;5114467;28;20123;-71
2022/04/12 03:13:25;;;;;;;1.60;0.60;;;7.70;66.80;;;;;;5093958;28;20367;-72
2022/04/12 03:15:51;;;;;;;0.60;0.50;;;7.60;66.80;;;;;;5113661;28;20039;-72
2022/04/12 03:18:17;;;;;;;0.80;0.57;;;7.70;66.80;;;;;;5114292;28;20119;-72
2022/04/12 03:20:44;;;;;;;0.50;0.50;;;7.60;66.80;;;;;;5095851;28;20048;-72
2022/04/12 03:23:09;;;;;;;0.40;0.40;;;7.70;66.90;;;;;;5114312;28;20043;-71
2022/04/12 03:25:35;;;;;;;0.47;0.40;;;7.60;66.80;;;;;;5095626;28;20046;-71
2022/04/12 03:28:01;;;;;;;0.60;0.50;;;7.60;66.90;;;;;;5113816;28;20043;-72
2022/04/12 03:30:28;;;;;;;0.80;0.60;;;7.50;66.90;;;;;;5095586;28;20461;-71
2022/04/12 03:32:54;;;;;;;0.65;0.47;;;7.50;67.00;;;;;;5113649;28;20032;-71
2022/04/12 03:35:21;;;;;;;0.50;0.40;;;7.60;67.10;;;;;;5094916;28;20052;-71
2022/04/12 03:37:48;;;;;;;1.00;0.50;;;7.50;67.10;;;;;;5094053;28;20425;-71
2022/04/12 03:40:14;;;;;;;0.85;0.50;;;7.50;67.20;;;;;;5093582;28;20048;-71
2022/04/12 03:42:40;;;;;;;0.75;0.50;;;7.50;67.20;;;;;;5114159;28;20042;-72
2022/04/12 03:45:06;;;;;;;0.50;0.50;;;7.40;67.30;;;;;;5113548;28;20043;-72
2022/04/12 03:47:32;;;;;;;1.38;0.68;;;7.40;67.40;;;;;;5095877;28;20044;-72
2022/04/12 03:49:58;;;;;;;0.80;0.60;;;7.40;67.40;;;;;;5113422;28;20073;-72
2022/04/12 03:52:23;;;;;;;0.75;0.50;;;7.50;67.50;;;;;;5113486;28;20100;-72
2022/04/12 03:54:49;;;;;;;0.68;0.50;;;7.40;67.50;;;;;;5093948;28;20044;-71
2022/04/12 03:57:17;;;;;;;0.60;0.47;;;7.40;67.60;;;;;;5095056;28;20051;-71
2022/04/12 03:59:43;;;;;;;0.45;0.45;;;7.40;67.60;;;;;;5078595;28;20043;-72
2022/04/12 04:02:09;;;;;;;0.47;0.45;;;7.40;67.70;;;;;;5114111;28;20051;-72
2022/04/12 04:04:34;;;;;;;0.55;0.55;;;7.30;67.70;;;;;;5113558;28;20039;-72
2022/04/12 04:07:00;;;;;;;0.38;0.38;;;7.30;67.70;;;;;;5113622;28;20063;-72
2022/04/12 04:09:26;;;;;;;0.57;0.50;;;7.30;67.80;;;;;;5114209;28;20036;-72
2022/04/12 04:11:52;;;;;;;0.45;0.30;;;7.20;67.70;;;;;;5113741;28;20044;-72
2022/04/12 04:14:17;;;;;;;0.88;0.60;;;7.30;67.80;;;;;;5114014;28;20521;-72
2022/04/12 04:16:43;;;;;;;0.40;0.40;;;7.30;67.80;;;;;;5095157;28;20055;-72
2022/04/12 04:19:09;;;;;;;0.50;0.47;;;7.20;67.80;;;;;;5113789;28;20435;-72
2022/04/12 04:21:36;;;;;;;0.70;0.70;;;7.20;67.80;;;;;;5095457;28;20046;-72
2022/04/12 04:24:03;;;;;;;1.08;0.55;;;7.20;67.90;;;;;;5113328;28;20092;-72
2022/04/12 04:26:28;;;;;;;0.35;0.30;;;7.40;68.00;;;;;;5095548;28;20469;-72
2022/04/12 04:28:54;;;;;;;0.90;0.60;;;7.20;67.90;;;;;;5112676;28;20115;-72
2022/04/12 04:31:20;;;;;;;0.40;0.40;;;7.20;67.90;;;;;;5113239;28;20043;-72
2022/04/12 04:33:46;;;;;;;0.60;0.40;;;7.20;68.00;;;;;;5113697;28;20165;-71
2022/04/12 04:36:12;;;;;;;0.40;0.40;;;7.20;68.10;;;;;;5094151;28;20122;-71
2022/04/12 04:38:38;;;;;;;0.50;0.32;;;7.20;68.00;;;;;;5113008;28;20046;-71
2022/04/12 04:41:03;;;;;;;0.80;0.60;;;7.20;68.00;;;;;;5113355;28;20110;-71
2022/04/12 04:43:29;;;;;;;0.75;0.43;;;7.20;68.00;;;;;;5113311;28;20043;-72
2022/04/12 04:45:55;;;;;;;0.63;0.63;;;7.20;68.10;;;;;;5113034;28;20050;-72
2022/04/12 04:48:21;;;;;;;0.57;0.50;;;7.20;68.20;;;;;;5113070;28;20042;-72
2022/04/12 04:50:47;;;;;;;0.55;0.40;;;7.20;68.20;;;;;;5094738;28;20491;-72
2022/04/12 04:53:12;;;;;;;0.80;0.50;;;7.10;68.20;;;;;;5094598;28;20035;-72
2022/04/12 04:55:42;;;;;;;0.47;0.45;;;7.10;68.30;;;;;;5112744;28;20085;-72
2022/04/12 04:58:08;;;;;;;0.75;0.50;;;7.20;68.30;;;;;;5094627;28;20047;-72
2022/04/12 05:00:34;;;;;;;0.40;0.40;;;7.20;68.90;;;;;;5094374;28;20040;-72
2022/04/12 05:03:02;;;;;;;0.55;0.50;;;7.20;68.30;;;;;;5112861;28;20039;-72
2022/04/12 05:05:28;;;;;;;0.90;0.40;;;7.20;68.30;;;;;;5112713;28;20537;-72
2022/04/12 05:07:55;;;;;;;0.73;0.43;;;7.20;68.20;;;;;;5112910;28;20035;-72
2022/04/12 05:10:23;;;;;;;0.80;0.50;;;7.30;68.30;;;;;;5113263;28;20071;-72
2022/04/12 05:12:50;;;;;;;0.60;0.50;;;7.20;68.20;;;;;;5113176;28;20039;-71
2022/04/12 05:15:16;;;;;;;0.40;0.40;;;7.30;68.20;;;;;;5113092;28;20469;-72
2022/04/12 05:17:49;;;;;;;0.40;0.40;;;7.30;68.30;;;;;;5112922;28;20046;-72
2022/04/12 05:20:15;;;;;;;0.93;0.50;;;7.30;68.30;;;;;;5112907;28;20122;-73
2022/04/12 05:22:40;;;;;;;0.85;0.60;;;7.30;68.30;;;;;;5112533;28;20177;-72
2022/04/12 05:25:07;;;;;;;1.05;0.60;;;7.40;68.30;;;;;;5094575;28;20043;-72
2022/04/12 05:27:34;;;;;;;1.70;0.80;;;7.40;68.20;;;;;;5093684;28;20048;-73
2022/04/12 05:30:02;;;;;;;0.57;0.50;;;7.40;68.20;;;;;;5113254;28;20027;-73
2022/04/12 05:32:27;;;;;;;0.82;0.57;;;7.40;68.10;;;;;;5112823;28;20470;-72
2022/04/12 05:34:54;;;;;;;0.70;0.55;;;7.40;68.10;;;;;;5113153;28;20039;-73
2022/04/12 05:37:20;;;;;;;0.82;0.57;;;7.40;68.20;;;;;;5113137;28;20048;-72
2022/04/12 05:39:46;;;;;;;1.52;0.68;;;7.50;68.20;;;;;;5114839;28;20473;-73
2022/04/12 05:42:12;;;;;;;0.68;0.50;;;7.50;68.10;;;;;;5116862;28;20047;-72
2022/04/12 05:44:38;;;;;;;0.50;0.50;;;7.50;68.10;;;;;;5098891;28;20035;-73
2022/04/12 05:47:04;;;;;;;0.95;0.60;;;7.60;68.10;;;;;;5116372;28;20424;-72
2022/04/12 05:49:31;;;;;;;1.10;0.70;;;7.60;68.00;;;;;;5080865;28;20043;-73
2022/04/12 05:51:57;;;;;;;1.05;0.75;;;7.70;68.00;;;;;;5116947;28;20449;-73
2022/04/12 05:54:23;;;;;;;1.02;0.70;;;7.70;67.90;;;;;;5117136;28;20146;-72
2022/04/12 05:56:49;;;;;;;0.90;0.60;;;7.80;67.80;;;;;;5115997;28;20477;-73
2022/04/12 05:59:15;;;;;;;0.82;0.50;;;7.80;67.70;;;;;;5116239;28;20043;-73
2022/04/12 06:01:42;;;;;;;0.95;0.63;;;7.80;67.70;;;;;;5116139;28;20050;-71
2022/04/12 06:04:08;;;;;;;0.82;0.70;;;7.90;67.80;;;;;;5097460;28;20047;-71
2022/04/12 06:06:35;;;;;;;0.82;0.68;;;7.90;67.80;;;;;;5115586;28;20042;-73
2022/04/12 06:09:02;;;;;;;1.50;0.88;;;7.90;67.70;;;;;;5116239;28;20042;-73
2022/04/12 06:11:28;;;;;;;0.90;0.65;;;7.90;67.70;;;;;;5099183;28;20040;-74
2022/04/12 06:13:54;;;;;;;0.93;0.60;;;8.10;67.70;;;;;;5097251;28;20538;-74
2022/04/12 06:16:20;;;;;;;0.80;0.65;;;8.10;67.70;;;;;;5115928;28;20097;-71
2022/04/12 06:18:46;;;;;;;0.73;0.55;;;8.20;67.60;;;;;;5097469;28;20039;-71
2022/04/12 06:21:12;;;;;;;1.00;0.68;;;8.30;67.50;;;;;;5097200;28;20040;-73
2022/04/12 06:23:40;;;;;;;0.82;0.70;;;8.20;67.50;;;;;;5097077;28;20051;-74
2022/04/12 06:26:05;;;;;;;1.00;0.70;;;8.30;67.60;;;;;;5115702;28;20039;-74
2022/04/12 06:28:32;;;;;;;0.43;0.43;;;8.30;67.60;;;;;;5115358;28;20107;-74
2022/04/12 06:30:59;;;;;;;1.30;0.90;;;8.30;67.70;;;;;;5096841;28;20031;-74
2022/04/12 06:33:26;;;;;;;1.52;0.70;;;8.30;67.60;;;;;;5096600;28;20131;-73
2022/04/12 06:35:52;;;;;;;1.60;0.68;;;8.30;67.60;;;;;;5115006;28;20039;-71
2022/04/12 06:38:19;;;;;;;0.70;0.60;;;8.40;67.60;;;;;;5095223;28;20066;-74
2022/04/12 06:40:45;;;;;;;1.48;0.77;;;8.40;67.60;;;;;;5096752;28;20051;-73
2022/04/12 06:43:12;;;;;;;0.80;0.70;;;8.50;67.60;;;;;;5115472;28;20055;-74
2022/04/12 06:45:38;;;;;;;1.15;0.90;;;8.60;67.50;;;;;;5080059;28;20052;-74
2022/04/12 06:48:04;;;;;;;1.38;0.90;;;8.70;67.50;;;;;;5114795;28;20036;-71
2022/04/12 06:50:32;;;;;;;0.95;0.60;;;8.70;67.30;;;;;;5114371;28;20043;-71
2022/04/12 06:52:59;;;;;;;1.60;0.85;;;8.80;67.30;;;;;;5096164;28;20116;-72
2022/04/12 06:55:25;;;;;;;1.23;0.80;;;8.90;67.10;;;;;;5079966;28;20035;-72
2022/04/12 06:57:51;;;;;;;1.10;0.90;;;9.00;67.00;;;;;;5114966;28;20047;-72
2022/04/12 07:00:18;;;;;;;0.60;0.60;;;9.10;66.90;;;;;;5094974;28;20044;-72
2022/04/12 07:02:44;;;;;;;0.68;0.63;;;9.30;66.80;;;;;;5079925;28;20084;-72
2022/04/12 07:05:11;;;;;;;0.60;0.60;;;9.30;66.60;;;;;;5115340;28;20055;-72
2022/04/12 07:07:37;;;;;;;0.40;0.40;;;9.40;66.60;;;;;;5115156;28;20047;-72
2022/04/12 07:10:06;;;;;;;2.00;0.55;;;9.40;66.60;;;;;;5114600;28;20039;-72
2022/04/12 07:12:32;;;;;;;0.75;0.60;;;9.50;66.60;;;;;;5097003;28;20061;-72
2022/04/12 07:14:58;;;;;;;0.60;0.47;;;9.50;66.70;;;;;;5114221;28;20115;-72
2022/04/12 07:17:23;;;;;;;0.77;0.68;;;9.50;66.70;;;;;;5096457;28;20414;-71
2022/04/12 07:19:49;;;;;;;1.08;0.63;;;9.50;66.60;;;;;;5114972;28;20458;-73
2022/04/12 07:22:15;;;;;;;0.82;0.50;;;9.60;66.70;;;;;;5114678;28;20067;-71
2022/04/12 07:24:41;;;;;;;0.50;0.50;;;9.60;66.70;;;;;;5114592;28;20047;-72
2022/04/12 07:27:07;;;;;;;1.23;0.80;;;9.60;66.70;;;;;;5094271;28;20114;-71
2022/04/12 07:29:34;;;;;;;0.65;0.60;;;9.70;66.90;;;;;;5115032;28;20538;-72
2022/04/12 07:32:00;;;;;;;0.70;0.60;;;9.80;67.00;;;;;;5114910;28;20378;-72
2022/04/12 07:34:26;;;;;;;0.70;0.60;;;9.80;66.80;;;;;;5114182;28;20122;-71
2022/04/12 07:36:55;;;;;;;1.15;0.80;;;10.00;67.40;;;;;;5114790;28;20561;-71
2022/04/12 07:39:22;;;;;;;0.95;0.85;;;10.10;66.50;;;;;;5114867;28;20032;-71
2022/04/12 07:41:48;;;;;;;0.90;0.70;;;10.20;66.30;;;;;;5114388;28;20485;-72
2022/04/12 07:44:16;;;;;;;1.00;0.70;;;10.40;66.20;;;;;;5114011;28;20047;-71
2022/04/12 07:46:42;;;;;;;0.77;0.55;;;10.60;66.00;;;;;;5114165;28;20074;-72
2022/04/12 07:49:08;;;;;;;0.95;0.73;;;10.70;65.90;;;;;;5094190;28;20055;-71
2022/04/12 07:51:34;;;;;;;1.70;0.63;;;10.80;65.80;;;;;;5114688;28;20032;-71
2022/04/12 07:54:01;;;;;;;1.27;0.80;;;11.00;65.60;;;;;;5114349;28;20066;-71
2022/04/12 07:56:27;;;;;;;0.95;0.63;;;11.10;65.40;;;;;;5095691;28;20036;-71
2022/04/12 07:58:53;;;;;;;1.50;0.80;;;11.30;65.20;;;;;;5114485;28;20070;-71
2022/04/12 08:01:19;;;;;;;1.42;0.68;;;11.50;65.00;;;;;;5113867;28;20047;-72
2022/04/12 08:03:45;;;;;;;1.58;0.80;;;11.70;64.90;;;;;;5113941;28;20035;-72
2022/04/12 08:06:11;;;;;;;0.75;0.55;;;11.90;64.70;;;;;;5093999;28;20043;-72
2022/04/12 08:08:36;;;;;;;1.10;0.80;;;12.10;64.60;;;;;;5113505;28;20043;-72
2022/04/12 08:11:02;;;;;;;0.82;0.73;;;12.30;64.40;;;;;;5095527;28;20111;-72
2022/04/12 08:13:28;;;;;;;1.05;0.80;;;12.50;64.20;;;;;;5113370;28;20118;-72
2022/04/12 08:15:54;;;;;;;0.77;0.77;;;12.70;64.00;;;;;;5079229;28;20488;-72
2022/04/12 08:18:20;;;;;;;1.23;0.75;;;12.90;63.90;;;;;;5113682;28;20039;-72
2022/04/12 08:20:49;;;;;;;0.90;0.68;;;13.10;63.60;;;;;;5113505;28;20378;-72
2022/04/12 08:23:17;;;;;;;0.70;0.60;;;13.30;63.40;;;;;;5095397;28;20043;-72
2022/04/12 08:25:43;;;;;;;1.23;0.80;;;13.50;63.30;;;;;;5093897;28;20109;-72
2022/04/12 08:28:09;;;;;;;1.02;0.70;;;13.70;63.20;;;;;;5095073;28;20085;-72
2022/04/12 08:30:36;;;;;;;1.08;0.65;;;13.80;63.00;;;;;;5113244;28;20067;-72
2022/04/12 08:33:03;;;;;;;0.80;0.77;;;14.00;63.10;;;;;;5113608;28;20415;-72
2022/04/12 08:35:29;;;;;;;1.42;0.82;;;14.10;63.00;;;;;;5078087;28;20042;-72
2022/04/12 08:37:55;;;;;;;1.67;0.75;;;14.40;62.90;;;;;;5113430;28;20043;-72
2022/04/12 08:40:21;;;;;;;0.77;0.70;;;14.50;62.90;;;;;;5113456;28;20131;-72
2022/04/12 08:42:48;;;;;;;1.80;0.90;;;14.60;62.80;;;;;;5113815;28;20173;-72
2022/04/12 08:45:14;;;;;;;1.45;1.00;;;14.70;62.80;;;;;;5095740;28;20047;-71
2022/04/12 08:47:41;;;;;;;1.08;0.90;;;14.90;62.90;;;;;;5113628;28;20126;-71
2022/04/12 08:50:09;;;;;;;0.98;0.80;;;15.00;62.90;;;;;;5094091;28;20397;-71
2022/04/12 08:52:36;;;;;;;1.30;0.90;;;15.10;62.90;;;;;;5095209;28;20039;-71
2022/04/12 08:55:03;;;;;;;1.52;0.93;;;15.10;62.90;;;;;;5113515;28;20397;-72
2022/04/12 08:57:29;;;;;;;0.90;0.65;;;15.30;62.90;;;;;;5112739;28;20035;-72
2022/04/12 08:59:55;;;;;;;1.48;0.88;;;15.40;63.00;;;;;;5113033;28;20050;-72
2022/04/12 09:02:25;;;;;;;0.80;0.65;;;15.60;63.10;;;;;;5113225;28;20047;-72
2022/04/12 09:04:51;;;;;;;1.83;1.00;;;15.60;63.00;;;;;;5095186;28;20035;-71
2022/04/12 09:07:17;;;;;;;1.05;0.75;;;15.70;63.20;;;;;;5112629;28;20043;-71
2022/04/12 09:09:43;;;;;;;1.60;0.80;;;15.80;63.20;;;;;;5112960;28;20058;-71
2022/04/12 09:12:11;;;;;;;0.85;0.70;;;15.80;63.20;;;;;;5112702;28;20115;-71
2022/04/12 09:14:39;;;;;;;1.30;0.88;;;15.90;63.10;;;;;;5117355;28;20107;-71
2022/04/12 09:17:09;;;;;;;0.98;0.70;;;16.00;63.10;;;;;;5101422;28;20502;-71
2022/04/12 09:19:41;;;;;;;1.05;0.88;;;16.10;63.10;;;;;;5120313;28;20050;-71
2022/04/12 09:22:14;;;;;;;1.25;1.00;;;16.30;63.10;;;;;;5119730;28;20039;-71
2022/04/12 09:24:45;;;;;;;1.67;1.08;;;16.50;62.90;;;;;;5119709;28;20043;-73
2022/04/12 09:27:13;;;;;;;1.58;0.93;;;16.70;62.70;;;;;;5101405;28;20055;-72
2022/04/12 09:29:45;;;;;;;1.80;0.95;;;16.80;62.40;;;;;;5101461;28;20139;-72
2022/04/12 09:32:14;;;;;;;0.60;0.60;;;16.90;62.30;;;;;;5101517;28;20240;-72
2022/04/12 09:34:42;;;;;;;0.98;0.70;;;17.00;62.40;;;;;;5100173;28;20050;-72
2022/04/12 09:37:24;;;;;;;1.13;0.70;;;17.10;62.50;;;;;;5100936;28;20035;-73
2022/04/12 09:40:06;;;;;;;1.08;0.73;;;17.20;62.50;;;;;;5115499;28;20035;-72
2022/04/12 09:42:45;;;;;;;0.68;0.63;;;17.20;62.50;;;;;;5119553;28;20030;-72
2022/04/12 09:45:14;;;;;;;0.57;0.55;;;17.40;62.50;;;;;;5119724;28;20173;-72
2022/04/12 09:47:40;;;;;;;0.90;0.80;;;17.50;62.40;;;;;;5101048;28;20044;-72
2022/04/12 09:50:08;;;;;;;1.33;0.80;;;17.50;62.30;;;;;;5119302;28;20043;-72
2022/04/12 09:52:34;;;;;;;0.93;0.70;;;17.60;62.20;;;;;;5118941;28;20134;-72
2022/04/12 09:54:59;;;;;;;1.20;0.98;;;17.80;62.20;;;;;;5119030;28;20097;-73
2022/04/12 09:57:26;;;;;;;1.10;0.70;;;17.80;62.00;;;;;;5119501;28;20043;-72
2022/04/12 09:59:57;;;;;;;0.93;0.65;;;17.90;61.90;;;;;;5118737;28;20067;-72
2022/04/12 10:02:24;;;;;;;1.38;0.80;;;17.90;62.00;;;;;;5098929;28;20050;-72
2022/04/12 10:04:52;;;;;;;1.23;0.80;;;17.90;62.00;;;;;;5118671;28;20552;-73
2022/04/12 10:07:20;;;;;;;1.35;0.80;;;18.00;62.00;;;;;;5118845;28;20508;-72
2022/04/12 10:09:48;;;;;;;0.90;0.68;;;18.10;62.00;;;;;;5099726;28;20043;-72
2022/04/12 10:12:15;;;;;;;1.05;0.70;;;18.10;62.00;;;;;;5118504;28;20032;-72
2022/04/12 10:14:42;;;;;;;1.15;0.80;;;18.20;61.90;;;;;;5101002;28;20044;-72
2022/04/12 10:17:08;;;;;;;1.13;0.90;;;18.20;61.80;;;;;;5119099;28;20043;-72
2022/04/12 10:19:35;;;;;;;0.80;0.80;;;18.30;61.70;;;;;;5100524;28;20068;-72
2022/04/12 10:22:03;;;;;;;0.80;0.63;;;18.40;61.70;;;;;;5118979;28;20048;-72
2022/04/12 10:24:29;;;;;;;0.93;0.82;;;18.50;61.60;;;;;;5118470;28;20456;-73
2022/04/12 10:26:56;;;;;;;1.00;0.73;;;18.50;61.40;;;;;;5113947;28;20074;-72
2022/04/12 10:29:22;;;;;;;0.85;0.73;;;18.50;61.30;;;;;;5115179;28;20214;-72
2022/04/12 10:32:05;;;;;;;1.52;0.80;;;18.60;61.30;;;;;;5115242;28;20137;-71
2022/04/12 10:34:31;;;;;;;1.48;0.70;;;18.70;61.20;;;;;;5095619;28;20044;-73
2022/04/12 10:37:02;;;;;;;1.35;0.80;;;18.70;61.10;;;;;;5115005;28;20039;-71
2022/04/12 10:39:35;;;;;;;0.77;0.60;;;18.80;61.10;;;;;;5097321;28;20049;-71
2022/04/12 10:42:05;;;;;;;0.60;0.60;;;18.70;61.00;;;;;;5115566;28;20047;-72
2022/04/12 10:44:52;;;;;;;0.98;0.80;;;18.90;61.00;;;;;;5096899;28;20485;-72
2022/04/12 10:47:27;;;;;;;0.90;0.80;;;18.90;60.80;;;;;;5114606;28;20148;-72
2022/04/12 10:49:55;;;;;;;0.65;0.63;;;18.90;60.70;;;;;;5096442;28;20140;-72
2022/04/12 10:52:32;;;;;;;1.40;0.95;;;19.00;60.50;;;;;;5114941;28;20104;-72
2022/04/12 10:54:59;;;;;;;1.15;0.80;;;19.00;60.40;;;;;;5094740;28;20036;-72
2022/04/12 10:57:26;;;;;;;1.20;0.73;;;19.00;60.50;;;;;;5115144;28;20054;-72
2022/04/12 11:00:11;;;;;;;0.30;0.30;;;19.10;60.50;;;;;;5080232;28;20043;-72
2022/04/12 11:02:41;;;;;;;0.85;0.70;;;19.20;60.40;;;;;;5115254;28;20051;-71
2022/04/12 11:05:28;;;;;;;0.70;0.50;;;19.30;60.20;;;;;;5079014;28;20048;-72
2022/04/12 11:07:54;;;;;;;0.75;0.50;;;19.40;60.00;;;;;;5114587;28;20126;-72
2022/04/12 11:10:23;;;;;;;0.47;0.47;;;19.40;60.00;;;;;;5114920;28;20040;-71
2022/04/12 11:13:03;;;;;;;1.50;0.65;;;19.50;59.80;;;;;;5114963;28;20566;-71
2022/04/12 11:15:30;;;;;;;1.73;0.93;;;19.50;59.70;;;;;;5114717;28;20039;-71
2022/04/12 11:18:11;;;;;;;1.02;0.90;;;19.50;59.50;;;;;;5114432;28;20281;-70
2022/04/12 11:20:39;;;;;;;1.08;0.80;;;19.40;59.50;;;;;;5114584;28;20046;-71
2022/04/12 11:23:09;;;;;;;1.55;1.10;;;19.30;59.70;;;;;;5096044;28;20485;-72
2022/04/12 11:25:46;;;;;;;1.37;0.97;;;19.30;59.70;;;;;;5114444;28;20039;-72
2022/04/12 11:28:15;;;;;;;1.00;0.80;;;19.30;59.80;;;;;;5114246;28;20297;-72
2022/04/12 11:30:51;;;;;;;1.40;1.00;;;19.20;59.80;;;;;;5114028;28;20090;-72
2022/04/12 11:33:17;;;;;;;1.63;0.80;;;19.30;59.80;;;;;;5097687;28;20065;-71
2022/04/12 11:35:42;;;;;;;1.05;0.80;;;19.40;59.70;;;;;;5095659;28;20048;-71
2022/04/12 11:38:08;;;;;;;2.08;1.10;;;19.50;59.60;;;;;;5078774;28;20051;-72
2022/04/12 11:40:34;;;;;;;1.38;0.98;;;19.70;59.30;;;;;;5114439;28;20036;-71
2022/04/12 11:42:59;;;;;;;0.60;0.60;;;19.90;58.80;;;;;;5078889;28;20500;-71
2022/04/12 11:45:33;;;;;;;0.88;0.70;;;19.90;58.50;;;;;;5113926;28;20039;-71
2022/04/12 11:47:59;;;;;;;0.68;0.63;;;19.90;58.60;;;;;;5113910;28;20065;-71
2022/04/12 11:50:25;;;;;;;1.65;1.00;;;20.10;58.60;;;;;;5113712;28;20084;-71
2022/04/12 11:52:50;;;;;;;0.68;0.65;;;20.20;58.20;;;;;;5114015;28;20028;-71
2022/04/12 11:55:16;;;;;;;0.85;0.60;;;20.20;58.10;;;;;;5113722;28;20397;-71
2022/04/12 11:57:43;;;;;;;1.02;0.90;;;20.30;58.00;;;;;;5113708;28;20417;-71
2022/04/12 12:00:09;;;;;;;1.55;0.90;;;20.40;58.10;;;;;;5113581;28;20042;-71
2022/04/12 12:02:38;;;;;;;0.82;0.75;;;20.40;57.90;;;;;;5113820;28;20088;-71
2022/04/12 12:05:13;;;;;;;1.23;0.80;;;20.40;57.90;;;;;;5095674;28;20404;-70
2022/04/12 12:07:39;;;;;;;1.95;0.90;;;20.40;57.90;;;;;;5113609;28;20118;-71
2022/04/12 12:10:10;;;;;;;1.15;0.93;;;20.40;57.80;;;;;;5113660;28;20044;-72
2022/04/12 12:12:37;;;;;;;1.20;0.80;;;20.50;57.80;;;;;;5113524;28;20546;-71
2022/04/12 12:15:21;;;;;;;1.38;1.00;;;20.40;57.90;;;;;;5113655;28;20036;-71
2022/04/12 12:17:49;;;;;;;1.90;0.93;;;20.40;57.80;;;;;;5113431;28;20035;-72
2022/04/12 12:20:18;;;;;;;1.33;0.88;;;20.40;57.90;;;;;;5095492;28;20048;-72
2022/04/12 12:22:46;;;;;;;0.80;0.73;;;20.40;58.00;;;;;;5113206;28;20043;-71
2022/04/12 12:25:18;;;;;;;1.73;1.02;;;20.40;58.10;;;;;;5113208;28;20087;-71
2022/04/12 12:27:50;;;;;;;0.98;0.60;;;20.30;58.10;;;;;;5113364;28;20043;-73
2022/04/12 12:30:21;;;;;;;0.60;0.50;;;20.30;58.30;;;;;;5113158;28;20047;-73
2022/04/12 12:32:51;;;;;;;1.23;0.73;;;20.30;58.40;;;;;;5113240;28;20079;-73
2022/04/12 12:35:17;;;;;;;1.35;0.70;;;20.40;58.30;;;;;;5113183;28;20035;-73
2022/04/12 12:37:45;;;;;;;0.60;0.50;;;20.60;58.10;;;;;;5113570;28;20488;-73
2022/04/12 12:40:30;;;;;;;1.20;0.60;;;20.70;57.90;;;;;;5113424;28;20032;-73
2022/04/12 12:42:56;;;;;;;0.70;0.50;;;20.70;57.80;;;;;;5093494;28;20481;-73
2022/04/12 12:45:24;;;;;;;0.90;0.70;;;20.80;57.70;;;;;;5113074;28;20046;-73
2022/04/12 12:47:52;;;;;;;0.65;0.50;;;20.80;57.80;;;;;;5112312;28;20086;-73
2022/04/12 12:50:19;;;;;;;0.73;0.50;;;20.80;57.80;;;;;;5112936;28;20040;-72
2022/04/12 12:52:46;;;;;;;0.70;0.65;;;20.80;57.80;;;;;;5093846;28;20036;-72
2022/04/12 12:55:19;;;;;;;0.60;0.50;;;20.90;57.80;;;;;;5077913;28;20044;-73